Lansing, MI

11:43 PM EDT on August 29, 2015 (GMT -0400)
Capital City | | Change Station
CLOSE
Current Station
Airport
Location: Lansing,
Elevation: 873 ft
Nearby Weather Stations

Elev 873 ft 42.78 °N, 84.58 °W | Updated 50 minutes ago

Overcast
Overcast
66 °F
Feels Like 66 °F
N
7
Wind Variable Wind from SE

Today
High -- | Low -- °F
--% Chance of Precip.
Yesterday
High -- | Low -- °F
Precip. -- in
6:59 AM 8:18 PM
Full, 100% visible
Pressure 30.07 in
Visibility 10.0 miles
Clouds Overcast 5500 ft
Dew Point 64 °F
Humidity 93%
Rainfall 0.21 in
Snow Depth Not available.
UV 0 out of 12
Pollen 8.50 out of 12
Air Quality Not available.
Flu Activity Not available.
METAR KLAN 300253Z 13006KT 10SM OVC055 19/18 A3007 RMK AO2 RAE10 SLP181 P0001 60002 T01890178 56000
Pressure 30.07 in
Visibility 10.0 miles
Clouds Overcast 5500 ft
Dew Point 64 °F
Humidity 93%
Rainfall 0.21 in
Snow Depth Not available.
UV 0 out of 12
Pollen 8.50 out of 12
Air Quality Not available.
Flu Activity Not available.
METAR KLAN 300253Z 13006KT 10SM OVC055 19/18 A3007 RMK AO2 RAE10 SLP181 P0001 60002 T01890178 56000

10-Day Weather Forecast

×

Almanac

Astronomy

Aug. 29, 2015 Rise Set
Actual Time
Civil Twilight
Nautical Twilight
Astronomical Twilight
Moon
Length of Visible Light
Length of Day
Tomorrow will be .
, % of the Moon is Illuminated

Today's Extremes

State Highs State Lows

Community

WunderPhotos

Upload Photos

1,850,870 photos uploaded!

WunderBlogs® & News

Nearby

Air Quality

  Air Quality AQ Index Pollutant
Not available.

Snow Depth

Station Depth Elevation

Earthquake Activity

City Distance Mag. Time & Date
Minimum magnitude displayed is 2.5.

Coastal Water Temperatures

Place Temperature

Stations

Nearby Weather Stations

Station Location Temp. Windchill Dew Point Humidity Wind Precip. Elev Updated Type